Time;durP1;ratioP1;P1;durP2;ratioP2;P2;SDS_P1;SDS_P2;PMS_P1;PMS_P2;Temp;Humidity;BMP_temperature;BMP_pressure;BME280_temperature;BME280_humidity;BME280_pressure;Samples;Min_cycle;Max_cycle;Signal;HPM_P1;HPM_P2
2023/01/04 00:00:20;;;;;;;43.10;23.35;;;;;;;;;;5076892;28;20032;-81
2023/01/04 00:02:46;;;;;;;49.90;23.10;;;;;;;;;;5042517;28;20358;-81
2023/01/04 00:05:11;;;;;;;45.03;24.20;;;;;;;;;;5076913;28;20033;-82
2023/01/04 00:07:37;;;;;;;46.72;24.30;;;;;;;;;;5041907;28;20063;-81
2023/01/04 00:10:02;;;;;;;41.67;24.23;;;;;;;;;;5058676;28;20051;-82
2023/01/04 00:12:28;;;;;;;48.42;26.25;;;;;;;;;;5059217;28;20039;-82
2023/01/04 00:14:53;;;;;;;51.50;25.60;;;;;;;;;;5058665;28;20025;-81
2023/01/04 00:17:18;;;;;;;50.47;27.00;;;;;;;;;;5076560;28;20028;-82
2023/01/04 00:19:44;;;;;;;46.17;25.33;;;;;;;;;;5059789;28;20077;-82
2023/01/04 00:22:09;;;;;;;51.53;25.25;;;;;;;;;;5082239;28;20016;-82
2023/01/04 00:24:35;;;;;;;48.65;25.85;;;;;;;;;;5058638;28;20389;-81
2023/01/04 00:27:00;;;;;;;47.70;25.52;;;;;;;;;;5058577;28;20102;-82
2023/01/04 00:29:26;;;;;;;48.35;25.17;;;;;;;;;;5076304;28;20063;-82
2023/01/04 00:31:51;;;;;;;47.15;24.90;;;;;;;;;;5076041;28;20024;-83
2023/01/04 00:34:17;;;;;;;48.15;24.70;;;;;;;;;;5058475;28;20031;-82
2023/01/04 00:36:42;;;;;;;46.22;24.42;;;;;;;;;;5075162;28;20025;-81
2023/01/04 00:39:09;;;;;;;46.15;24.00;;;;;;;;;;5058025;28;20079;-81
2023/01/04 00:41:40;;;;;;;51.28;25.65;;;;;;;;;;5041504;28;20462;-81
2023/01/04 00:44:05;;;;;;;48.72;24.75;;;;;;;;;;5025396;28;20028;-81
2023/01/04 00:46:31;;;;;;;51.97;25.58;;;;;;;;;;5058034;28;20330;-82
2023/01/04 00:48:56;;;;;;;46.70;24.30;;;;;;;;;;5041100;28;20074;-82
2023/01/04 00:51:22;;;;;;;43.53;23.80;;;;;;;;;;5041672;28;20028;-81
2023/01/04 00:53:47;;;;;;;46.40;24.02;;;;;;;;;;5076006;28;20021;-82
2023/01/04 00:56:12;;;;;;;46.53;24.58;;;;;;;;;;5075941;28;20043;-81
2023/01/04 00:58:38;;;;;;;45.72;23.63;;;;;;;;;;5058141;28;20039;-81
2023/01/04 01:01:07;;;;;;;47.88;24.88;;;;;;;;;;5041204;28;20028;-82
2023/01/04 01:03:32;;;;;;;44.90;23.98;;;;;;;;;;5041090;28;20033;-81
2023/01/04 01:06:05;;;;;;;48.22;24.60;;;;;;;;;;5041305;28;20401;-81
2023/01/04 01:08:34;;;;;;;46.47;22.60;;;;;;;;;;5041755;28;20093;-82
2023/01/04 01:11:07;;;;;;;40.80;22.02;;;;;;;;;;5041374;28;20401;-83
2023/01/04 01:13:32;;;;;;;47.38;23.13;;;;;;;;;;5043158;28;20032;-82
2023/01/04 01:16:06;;;;;;;46.88;23.23;;;;;;;;;;5067328;28;20101;-82
2023/01/04 01:18:32;;;;;;;46.53;23.42;;;;;;;;;;5046002;28;20059;-82
2023/01/04 01:20:58;;;;;;;47.75;22.98;;;;;;;;;;5059901;28;20056;-82
2023/01/04 01:23:23;;;;;;;45.97;22.08;;;;;;;;;;5064788;28;20043;-83
2023/01/04 01:25:49;;;;;;;40.05;19.27;;;;;;;;;;5041010;28;20032;-81
2023/01/04 01:28:14;;;;;;;42.47;21.42;;;;;;;;;;5057643;28;20039;-81
2023/01/04 01:30:40;;;;;;;37.22;20.58;;;;;;;;;;5057206;28;20041;-80
2023/01/04 01:33:06;;;;;;;38.03;21.00;;;;;;;;;;5056969;28;20078;-82
2023/01/04 01:35:32;;;;;;;35.92;19.75;;;;;;;;;;5056969;28;20016;-82
2023/01/04 01:37:58;;;;;;;34.33;19.38;;;;;;;;;;5057198;28;20115;-83
2023/01/04 01:40:23;;;;;;;38.17;20.88;;;;;;;;;;5057211;28;20123;-82
2023/01/04 01:42:49;;;;;;;34.88;19.20;;;;;;;;;;5057048;28;20075;-83
2023/01/04 01:45:31;;;;;;;37.20;18.90;;;;;;;;;;5040536;28;20035;-81
2023/01/04 01:48:00;;;;;;;33.35;18.90;;;;;;;;;;5040640;28;20050;-82
2023/01/04 01:50:28;;;;;;;38.13;17.63;;;;;;;;;;5040717;28;20029;-82
2023/01/04 01:52:54;;;;;;;36.70;18.85;;;;;;;;;;5074914;28;20028;-82
2023/01/04 01:55:20;;;;;;;39.20;19.50;;;;;;;;;;5056988;28;20114;-82
2023/01/04 01:57:45;;;;;;;35.25;18.27;;;;;;;;;;5074729;28;20025;-83
2023/01/04 02:00:12;;;;;;;39.70;18.83;;;;;;;;;;5040505;28;20075;-81
2023/01/04 02:03:11;;;;;;;36.35;19.08;;;;;;;;;;5040429;28;20082;-82
2023/01/04 02:05:37;;;;;;;37.53;19.13;;;;;;;;;;5056601;28;20060;-82
2023/01/04 02:08:05;;;;;;;36.05;19.00;;;;;;;;;;5056969;28;20058;-82
2023/01/04 02:10:31;;;;;;;36.75;20.40;;;;;;;;;;5040847;28;20090;-82
2023/01/04 02:12:56;;;;;;;38.75;19.98;;;;;;;;;;5023588;28;20020;-82
2023/01/04 02:15:22;;;;;;;41.30;20.10;;;;;;;;;;5074327;28;20020;-82
2023/01/04 02:17:59;;;;;;;37.17;18.77;;;;;;;;;;5039507;28;20123;-83
2023/01/04 02:20:52;;;;;;;39.42;20.30;;;;;;;;;;5040727;28;20029;-82
2023/01/04 02:23:44;;;;;;;36.85;19.65;;;;;;;;;;5059204;28;20041;-82
2023/01/04 02:26:12;;;;;;;40.95;19.85;;;;;;;;;;5063216;28;20087;-82
2023/01/04 02:29:02;;;;;;;36.90;19.40;;;;;;;;;;5074378;28;20119;-82
2023/01/04 02:31:39;;;;;;;37.93;19.80;;;;;;;;;;5075193;28;20040;-81
2023/01/04 02:34:35;;;;;;;35.60;20.02;;;;;;;;;;5052059;28;20408;-81
2023/01/04 02:37:45;;;;;;;39.70;20.70;;;;;;;;;;5030306;28;20032;-82
2023/01/04 02:40:45;;;;;;;37.95;20.27;;;;;;;;;;4973623;28;20034;-81
2023/01/04 02:46:03;;;;;;;42.75;19.15;;;;;;;;;;5058674;28;19934;-82
2023/01/04 02:51:31;;;;;;;35.83;19.60;;;;;;;;;;5044673;28;20059;-82
2023/01/04 02:53:58;;;;;;;36.70;18.77;;;;;;;;;;5056299;28;20032;-82
2023/01/04 02:56:56;;;;;;;38.90;18.70;;;;;;;;;;5039217;28;20032;-83
2023/01/04 02:59:49;;;;;;;40.22;19.88;;;;;;;;;;5041769;28;20024;-82
2023/01/04 03:08:37;;;;;;;40.30;19.42;;;;;;;;;;5088775;28;20043;-82
2023/01/04 03:13:51;;;;;;;34.22;18.58;;;;;;;;;;5032266;28;19915;-83
2023/01/04 03:16:20;;;;;;;38.90;19.35;;;;;;;;;;5026674;28;20131;-82
2023/01/04 03:18:48;;;;;;;37.75;19.20;;;;;;;;;;5026916;28;20360;-83
2023/01/04 03:21:13;;;;;;;35.97;18.25;;;;;;;;;;5043612;28;20036;-82
2023/01/04 03:37:41;;;;;;;37.58;19.75;;;;;;;;;;5047800;28;20519;-82
2023/01/04 03:48:43;;;;;;;35.47;18.10;;;;;;;;;;5048215;28;20491;-82
2023/01/04 03:51:14;;;;;;;36.15;16.95;;;;;;;;;;5077175;28;20441;-82
2023/01/04 03:54:03;;;;;;;34.58;17.65;;;;;;;;;;5042685;28;20020;-82
2023/01/04 03:56:28;;;;;;;34.30;16.67;;;;;;;;;;5076996;28;20033;-82
2023/01/04 03:58:54;;;;;;;35.17;16.95;;;;;;;;;;5059157;28;20025;-83
2023/01/04 04:01:19;;;;;;;32.42;16.45;;;;;;;;;;5042455;28;20036;-82
2023/01/04 04:09:15;;;;;;;30.58;15.80;;;;;;;;;;5061490;28;20071;-82
2023/01/04 04:11:40;;;;;;;31.02;15.88;;;;;;;;;;5059007;28;20029;-82
2023/01/04 04:14:06;;;;;;;33.97;17.85;;;;;;;;;;5058708;28;20032;-83
2023/01/04 04:16:31;;;;;;;35.53;17.17;;;;;;;;;;5076613;28;20445;-83
2023/01/04 04:18:57;;;;;;;33.00;16.60;;;;;;;;;;5076813;28;20456;-83
2023/01/04 04:21:22;;;;;;;31.15;16.27;;;;;;;;;;5042280;28;20021;-82
2023/01/04 04:23:48;;;;;;;33.72;15.80;;;;;;;;;;5076637;28;20361;-83
2023/01/04 04:26:13;;;;;;;37.28;16.75;;;;;;;;;;5042124;28;20033;-83
2023/01/04 04:28:39;;;;;;;30.75;15.45;;;;;;;;;;5058595;28;20028;-82
2023/01/04 04:31:05;;;;;;;35.60;16.75;;;;;;;;;;5058784;28;20080;-82
2023/01/04 04:33:30;;;;;;;34.05;15.20;;;;;;;;;;5041657;28;20029;-81
2023/01/04 04:35:55;;;;;;;32.60;15.70;;;;;;;;;;5058759;28;20031;-82
2023/01/04 04:38:21;;;;;;;30.38;13.57;;;;;;;;;;5058933;28;20476;-82
2023/01/04 04:43:31;;;;;;;28.92;14.38;;;;;;;;;;5060970;28;20148;-82
2023/01/04 04:45:57;;;;;;;33.20;15.63;;;;;;;;;;5076219;28;20028;-82
2023/01/04 04:48:22;;;;;;;31.05;14.65;;;;;;;;;;5076538;28;20366;-81
2023/01/04 04:50:48;;;;;;;27.70;14.52;;;;;;;;;;5077259;28;20025;-82
2023/01/04 04:53:13;;;;;;;29.42;15.40;;;;;;;;;;5051006;28;20028;-82
2023/01/04 04:55:39;;;;;;;33.83;16.35;;;;;;;;;;5046310;28;20127;-81
2023/01/04 04:58:04;;;;;;;30.38;16.00;;;;;;;;;;5041499;28;20047;-82
2023/01/04 05:00:29;;;;;;;32.05;15.52;;;;;;;;;;5058140;28;20131;-82
2023/01/04 05:02:58;;;;;;;33.05;15.77;;;;;;;;;;5076091;28;20055;-82
2023/01/04 05:05:24;;;;;;;31.75;15.65;;;;;;;;;;5075563;28;20032;-83
2023/01/04 05:07:49;;;;;;;29.77;15.95;;;;;;;;;;5075995;28;20495;-83
2023/01/04 05:10:15;;;;;;;31.73;16.13;;;;;;;;;;5057250;28;20039;-82
2023/01/04 05:12:58;;;;;;;34.33;16.23;;;;;;;;;;5057880;28;20115;-83
2023/01/04 05:15:41;;;;;;;34.17;16.35;;;;;;;;;;5060227;28;20032;-82
2023/01/04 05:18:07;;;;;;;33.05;17.27;;;;;;;;;;5041553;28;20116;-81
2023/01/04 05:20:32;;;;;;;34.65;16.45;;;;;;;;;;5041659;28;20051;-81
2023/01/04 05:22:58;;;;;;;33.67;16.67;;;;;;;;;;5057195;28;20067;-81
2023/01/04 05:25:23;;;;;;;32.83;16.70;;;;;;;;;;5057008;28;20075;-81
2023/01/04 05:27:49;;;;;;;29.80;15.75;;;;;;;;;;5041208;28;20040;-81
2023/01/04 05:32:58;;;;;;;28.15;14.60;;;;;;;;;;5055537;28;20091;-81
2023/01/04 05:35:24;;;;;;;33.00;14.77;;;;;;;;;;5037595;28;20025;-81
2023/01/04 05:37:49;;;;;;;30.23;15.43;;;;;;;;;;5037802;28;20040;-81
2023/01/04 05:40:15;;;;;;;28.40;14.18;;;;;;;;;;5055442;28;20021;-81
2023/01/04 05:42:41;;;;;;;27.45;14.90;;;;;;;;;;5037677;28;20043;-81
2023/01/04 05:45:07;;;;;;;31.55;15.13;;;;;;;;;;5053311;28;20040;-82
2023/01/04 05:47:38;;;;;;;33.38;15.30;;;;;;;;;;5054670;28;20073;-81
2023/01/04 05:50:04;;;;;;;27.20;14.10;;;;;;;;;;5026923;28;20036;-82
2023/01/04 05:52:30;;;;;;;29.73;14.23;;;;;;;;;;5035858;28;20030;-81
2023/01/04 05:54:56;;;;;;;26.77;14.70;;;;;;;;;;5038944;28;20028;-81
2023/01/04 05:57:26;;;;;;;35.35;14.75;;;;;;;;;;4992354;28;20034;-78
2023/01/04 05:59:52;;;;;;;32.08;16.10;;;;;;;;;;5037723;28;20037;-84
2023/01/04 06:02:24;;;;;;;38.33;16.38;;;;;;;;;;5018391;28;20402;-80
2023/01/04 06:04:49;;;;;;;32.30;15.82;;;;;;;;;;5022449;28;20675;-80
2023/01/04 06:07:15;;;;;;;29.90;15.27;;;;;;;;;;5041678;28;20104;-81
2023/01/04 06:09:40;;;;;;;30.50;15.57;;;;;;;;;;5034995;28;20021;-81
2023/01/04 06:12:07;;;;;;;31.77;16.55;;;;;;;;;;5051775;28;20021;-82
2023/01/04 06:14:32;;;;;;;32.70;17.40;;;;;;;;;;5036874;28;20139;-80
2023/01/04 06:16:58;;;;;;;33.97;16.60;;;;;;;;;;5054124;28;20175;-76
2023/01/04 06:22:48;;;;;;;34.33;15.32;;;;;;;;;;5017218;28;20033;-80
2023/01/04 06:25:14;;;;;;;33.22;15.90;;;;;;;;;;5051448;28;20025;-79
2023/01/04 06:27:49;;;;;;;29.88;15.77;;;;;;;;;;5030787;28;20147;-78
2023/01/04 06:30:18;;;;;;;29.85;16.23;;;;;;;;;;5052189;28;20045;-81
2023/01/04 06:32:43;;;;;;;35.53;16.50;;;;;;;;;;5056820;28;20072;-81
2023/01/04 06:35:11;;;;;;;32.15;17.35;;;;;;;;;;5063992;28;20040;-81
2023/01/04 06:37:37;;;;;;;34.63;17.35;;;;;;;;;;5006442;28;20032;-81
2023/01/04 06:40:03;;;;;;;33.80;16.35;;;;;;;;;;5023432;28;20116;-81
2023/01/04 06:42:43;;;;;;;31.58;15.32;;;;;;;;;;5050211;28;20037;-80
2023/01/04 06:45:09;;;;;;;;;;;;;;;;;;5046501;28;20028;-79
2023/01/04 06:47:46;;;;;;;27.27;14.15;;;;;;;;;;5039349;28;19923;-80
2023/01/04 06:50:12;;;;;;;31.70;15.75;;;;;;;;;;5038029;28;20025;-79
2023/01/04 06:52:38;;;;;;;30.10;15.48;;;;;;;;;;5057808;28;20039;-82
2023/01/04 06:55:19;;;;;;;29.92;13.93;;;;;;;;;;5035539;28;20029;-80
2023/01/04 06:57:44;;;;;;;32.75;15.05;;;;;;;;;;5020947;28;20033;-79
2023/01/04 07:00:10;;;;;;;32.35;15.98;;;;;;;;;;5002211;28;20098;-79
2023/01/04 07:03:05;;;;;;;26.25;14.65;;;;;;;;;;5017408;28;20120;-83
2023/01/04 07:05:31;;;;;;;33.45;16.92;;;;;;;;;;5063498;28;20456;-81
2023/01/04 07:08:00;;;;;;;26.52;14.20;;;;;;;;;;5035225;28;20025;-79
2023/01/04 07:10:25;;;;;;;31.27;17.30;;;;;;;;;;5028356;28;20029;-81
2023/01/04 07:12:51;;;;;;;44.55;26.05;;;;;;;;;;5015518;28;20055;-80
2023/01/04 07:15:16;;;;;;;40.55;24.35;;;;;;;;;;5050354;28;20029;-79
2023/01/04 07:17:44;;;;;;;25.67;13.52;;;;;;;;;;5031824;28;20037;-82
2023/01/04 07:20:13;;;;;;;24.30;13.05;;;;;;;;;;5032932;28;20179;-78
2023/01/04 07:22:38;;;;;;;27.20;13.45;;;;;;;;;;5033363;28;20037;-81
2023/01/04 07:29:14;;;;;;;22.73;11.52;;;;;;;;;;4998933;28;20044;-80
2023/01/04 07:31:46;;;;;;;23.85;11.68;;;;;;;;;;4953542;28;20070;-80
2023/01/04 07:37:58;;;;;;;25.38;12.90;;;;;;;;;;4971767;28;20046;-81
2023/01/04 07:40:32;;;;;;;37.55;16.48;;;;;;;;;;5073551;28;20047;-82
2023/01/04 07:43:02;;;;;;;40.40;17.05;;;;;;;;;;5076602;28;20029;-82
2023/01/04 07:45:27;;;;;;;34.85;16.40;;;;;;;;;;5057544;28;20049;-82
2023/01/04 07:47:53;;;;;;;34.70;16.02;;;;;;;;;;5007505;28;20040;-82
2023/01/04 07:50:19;;;;;;;35.80;17.33;;;;;;;;;;5021074;28;20021;-81
2023/01/04 07:52:44;;;;;;;35.30;17.52;;;;;;;;;;5039677;28;20089;-81
2023/01/04 07:55:14;;;;;;;27.17;14.00;;;;;;;;;;5059243;28;20033;-83
2023/01/04 07:57:39;;;;;;;41.63;25.97;;;;;;;;;;5048987;28;20064;-82
2023/01/04 08:00:05;;;;;;;32.35;17.63;;;;;;;;;;5078367;28;20271;-80
2023/01/04 08:02:34;;;;;;;28.88;14.55;;;;;;;;;;5073595;28;20024;-81
2023/01/04 08:05:06;;;;;;;23.13;13.18;;;;;;;;;;5057315;28;20059;-81
2023/01/04 08:11:38;;;;;;;28.60;14.60;;;;;;;;;;5077593;28;20097;-80
2023/01/04 08:14:56;;;;;;;30.90;15.48;;;;;;;;;;5078437;28;20028;-81
2023/01/04 08:17:44;;;;;;;;;;;;;;;;;;5022731;28;20034;-81
2023/01/04 08:20:10;;;;;;;31.40;15.07;;;;;;;;;;5028664;28;19990;-80
2023/01/04 08:22:38;;;;;;;31.15;15.23;;;;;;;;;;5042663;28;20033;-82
2023/01/04 08:25:11;;;;;;;27.70;13.23;;;;;;;;;;5078750;28;20138;-81
2023/01/04 08:27:36;;;;;;;29.65;14.55;;;;;;;;;;5069598;28;20024;-82
2023/01/04 08:30:05;;;;;;;21.83;12.55;;;;;;;;;;5090993;28;20051;-81
2023/01/04 08:33:29;;;;;;;;;;;;;;;;;;;;;
2023/01/04 08:36:12;;;;;;;27.42;12.38;;;;;;;;;;5077107;28;20104;-81
2023/01/04 08:38:38;;;;;;;29.73;13.02;;;;;;;;;;5029272;28;20095;-80
2023/01/04 08:41:04;;;;;;;26.30;13.30;;;;;;;;;;5038418;28;20025;-82
2023/01/04 08:43:30;;;;;;;26.25;13.05;;;;;;;;;;5036199;28;20055;-81
2023/01/04 08:45:55;;;;;;;33.60;14.07;;;;;;;;;;5052955;28;20544;-80
2023/01/04 08:48:21;;;;;;;34.03;15.98;;;;;;;;;;5053602;28;20032;-81
2023/01/04 08:50:46;;;;;;;28.80;15.82;;;;;;;;;;5069233;28;20028;-82
2023/01/04 08:53:12;;;;;;;28.65;13.88;;;;;;;;;;5053457;28;20017;-82
2023/01/04 08:55:54;;;;;;;29.80;14.25;;;;;;;;;;5071422;28;20032;-81
2023/01/04 08:59:11;;;;;;;;;;;;;;;;;;;;;
2023/01/04 09:01:38;;;;;;;20.40;13.43;;;;;;;;;;5001153;28;20033;-83
2023/01/04 09:04:03;;;;;;;27.50;14.88;;;;;;;;;;5054695;28;20025;-82
2023/01/04 09:06:29;;;;;;;25.27;14.77;;;;;;;;;;5055411;28;20075;-82
2023/01/04 09:08:55;;;;;;;29.48;14.10;;;;;;;;;;5068237;28;20033;-81
2023/01/04 09:11:21;;;;;;;24.45;13.73;;;;;;;;;;5021495;28;20090;-81
2023/01/04 09:13:46;;;;;;;26.60;13.80;;;;;;;;;;5020291;28;20118;-82
2023/01/04 09:16:17;;;;;;;26.88;13.40;;;;;;;;;;5052607;28;20043;-81
2023/01/04 09:18:43;;;;;;;24.70;13.98;;;;;;;;;;5020270;28;20116;-80
2023/01/04 09:21:10;;;;;;;25.25;13.50;;;;;;;;;;5040206;28;20488;-82
2023/01/04 09:23:36;;;;;;;26.67;14.25;;;;;;;;;;5038531;28;20056;-83
2023/01/04 09:26:10;;;;;;;22.65;13.38;;;;;;;;;;5074186;28;20063;-80
2023/01/04 09:28:35;;;;;;;28.70;14.02;;;;;;;;;;5054886;28;20021;-82
2023/01/04 09:31:11;;;;;;;32.70;19.27;;;;;;;;;;5076495;28;20040;-81
2023/01/04 09:33:37;;;;;;;25.35;15.07;;;;;;;;;;5062979;28;20255;-83
2023/01/04 09:36:06;;;;;;;26.55;15.07;;;;;;;;;;5078140;28;20032;-83
2023/01/04 09:38:35;;;;;;;30.70;16.95;;;;;;;;;;5056018;28;20055;-83
2023/01/04 09:41:27;;;;;;;27.63;15.85;;;;;;;;;;5078317;28;20449;-82
2023/01/04 09:44:08;;;;;;;29.77;18.58;;;;;;;;;;5062189;28;20036;-82
2023/01/04 09:46:39;;;;;;;28.27;14.75;;;;;;;;;;5053440;28;20033;-82
2023/01/04 09:49:17;;;;;;;36.47;16.10;;;;;;;;;;5050011;28;20041;-82
2023/01/04 09:52:23;;;;;;;28.67;15.15;;;;;;;;;;5065174;28;20037;-80
2023/01/04 09:55:02;;;;;;;29.25;16.08;;;;;;;;;;5052023;28;20470;-82
2023/01/04 09:58:15;;;;;;;30.90;15.90;;;;;;;;;;5032586;28;20045;-79
2023/01/04 10:01:16;;;;;;;27.35;16.35;;;;;;;;;;5008603;28;20361;-81
2023/01/04 10:04:19;;;;;;;32.42;16.67;;;;;;;;;;5072544;28;20557;-79
2023/01/04 10:06:51;;;;;;;30.05;15.48;;;;;;;;;;5074052;28;20066;-83
2023/01/04 10:09:17;;;;;;;32.53;18.83;;;;;;;;;;5072751;28;20032;-83
2023/01/04 10:12:08;;;;;;;24.75;13.43;;;;;;;;;;5072216;28;20347;-81
2023/01/04 10:14:46;;;;;;;28.30;15.02;;;;;;;;;;5039199;28;20024;-81
2023/01/04 10:17:20;;;;;;;31.42;18.00;;;;;;;;;;5071460;28;20421;-81
2023/01/04 10:20:37;;;;;;;28.60;16.02;;;;;;;;;;5055927;28;20098;-81
2023/01/04 10:34:42;;;;;;;36.92;20.73;;;;;;;;;;5190867;22;20106;-80
2023/01/04 10:37:27;;;;;;;37.60;17.38;;;;;;;;;;5079002;28;20128;-80
2023/01/04 10:39:54;;;;;;;29.48;16.63;;;;;;;;;;5080338;28;20541;-85
2023/01/04 10:43:07;;;;;;;26.83;16.17;;;;;;;;;;5057834;28;20024;-79
2023/01/04 10:45:38;;;;;;;32.05;16.77;;;;;;;;;;5006960;28;20046;-81
2023/01/04 10:48:37;;;;;;;31.98;18.40;;;;;;;;;;5053859;28;20036;-80
2023/01/04 10:51:03;;;;;;;27.38;15.98;;;;;;;;;;5058445;28;20036;-83
2023/01/04 10:53:52;;;;;;;32.97;15.93;;;;;;;;;;5036678;28;20044;-77
2023/01/04 10:56:36;;;;;;;33.22;15.95;;;;;;;;;;5067102;28;20448;-78
2023/01/04 10:59:12;;;;;;;30.85;15.30;;;;;;;;;;5062839;28;20047;-79
2023/01/04 11:01:41;;;;;;;26.77;15.35;;;;;;;;;;5050498;28;20120;-79
2023/01/04 11:04:27;;;;;;;29.77;16.20;;;;;;;;;;5051710;28;20020;-80
2023/01/04 11:07:16;;;;;;;32.15;18.45;;;;;;;;;;5054056;28;20036;-80
2023/01/04 11:09:56;;;;;;;39.78;19.17;;;;;;;;;;5071083;28;20119;-79
2023/01/04 11:12:22;;;;;;;40.55;20.27;;;;;;;;;;5070872;28;20025;-78
2023/01/04 11:14:50;;;;;;;35.40;17.75;;;;;;;;;;5052688;28;20031;-80
2023/01/04 11:17:17;;;;;;;34.72;18.33;;;;;;;;;;5051944;28;20037;-78
2023/01/04 11:19:43;;;;;;;35.80;18.60;;;;;;;;;;5037017;28;20557;-79
2023/01/04 11:22:23;;;;;;;38.05;18.77;;;;;;;;;;5036743;28;20098;-78
2023/01/04 11:24:53;;;;;;;35.65;17.38;;;;;;;;;;5057305;28;20081;-78
2023/01/04 11:27:22;;;;;;;37.60;17.80;;;;;;;;;;5040649;28;20044;-78
2023/01/04 11:29:53;;;;;;;31.88;17.27;;;;;;;;;;5070250;28;20079;-80
2023/01/04 11:32:39;;;;;;;36.65;17.50;;;;;;;;;;5057133;28;20033;-77
2023/01/04 11:35:04;;;;;;;34.78;15.48;;;;;;;;;;5046143;28;20099;-76
2023/01/04 11:37:38;;;;;;;31.02;17.48;;;;;;;;;;5036691;28;20156;-81
2023/01/04 11:40:19;;;;;;;28.98;16.25;;;;;;;;;;5026969;28;20053;-80
2023/01/04 11:42:50;;;;;;;29.85;16.95;;;;;;;;;;5016471;28;20443;-81
2023/01/04 11:45:26;;;;;;;28.70;16.92;;;;;;;;;;5012767;28;20025;-80
2023/01/04 11:47:53;;;;;;;31.83;16.15;;;;;;;;;;5026042;28;20148;-80
2023/01/04 11:50:34;;;;;;;31.65;15.90;;;;;;;;;;5032054;28;20083;-78
2023/01/04 11:53:01;;;;;;;28.45;16.38;;;;;;;;;;5036495;28;20037;-79
2023/01/04 11:55:28;;;;;;;28.38;15.80;;;;;;;;;;5032789;28;20056;-80
2023/01/04 11:58:10;;;;;;;27.02;15.98;;;;;;;;;;5032833;28;20033;-79
2023/01/04 12:00:35;;;;;;;32.22;17.05;;;;;;;;;;5016443;28;20033;-79
2023/01/04 12:03:17;;;;;;;36.10;17.85;;;;;;;;;;5015363;28;20044;-80
2023/01/04 12:05:43;;;;;;;34.92;17.73;;;;;;;;;;5029319;28;20044;-79
2023/01/04 12:08:31;;;;;;;32.05;17.45;;;;;;;;;;5030672;28;20029;-81
2023/01/04 12:10:57;;;;;;;30.15;17.77;;;;;;;;;;5016348;28;20025;-79
2023/01/04 12:13:27;;;;;;;33.65;17.27;;;;;;;;;;5032821;28;20104;-77
2023/01/04 12:16:03;;;;;;;38.78;19.15;;;;;;;;;;5033695;28;20372;-79
2023/01/04 12:18:39;;;;;;;40.80;19.30;;;;;;;;;;5034894;28;20116;-78
2023/01/04 12:21:11;;;;;;;33.85;19.90;;;;;;;;;;5022519;28;20040;-78
2023/01/04 12:23:40;;;;;;;35.13;20.42;;;;;;;;;;5034601;28;20030;-80
2023/01/04 12:26:07;;;;;;;45.00;22.92;;;;;;;;;;5035362;28;20045;-79
2023/01/04 12:28:33;;;;;;;38.40;21.05;;;;;;;;;;5018865;28;20378;-80
2023/01/04 12:31:17;;;;;;;39.22;21.40;;;;;;;;;;5036674;28;20418;-78
2023/01/04 12:33:43;;;;;;;37.45;19.58;;;;;;;;;;5045541;28;20045;-78
2023/01/04 12:36:11;;;;;;;36.22;20.13;;;;;;;;;;5069961;28;20024;-79
2023/01/04 12:39:02;;;;;;;45.80;23.33;;;;;;;;;;5037152;28;20025;-79
2023/01/04 12:41:34;;;;;;;47.55;24.02;;;;;;;;;;5050790;28;20035;-78
2023/01/04 12:44:00;;;;;;;46.05;23.42;;;;;;;;;;5052228;28;20276;-80
2023/01/04 12:49:25;;;;;;;37.00;18.80;;;;;;;;;;5053603;28;20055;-80
2023/01/04 12:52:09;;;;;;;43.65;19.38;;;;;;;;;;5053868;28;20033;-79
2023/01/04 12:54:49;;;;;;;35.00;18.75;;;;;;;;;;5052363;28;20078;-79
2023/01/04 12:57:17;;;;;;;35.20;18.15;;;;;;;;;;5053179;28;20047;-78
2023/01/04 12:59:53;;;;;;;38.15;20.63;;;;;;;;;;5054997;28;20432;-78
2023/01/04 13:02:26;;;;;;;46.83;21.92;;;;;;;;;;5053595;28;20366;-79
2023/01/04 13:04:56;;;;;;;38.72;20.42;;;;;;;;;;5034549;28;20040;-79
2023/01/04 13:07:31;;;;;;;45.97;22.10;;;;;;;;;;5034935;28;20033;-79
2023/01/04 13:10:01;;;;;;;41.55;20.27;;;;;;;;;;5054073;28;20458;-79
2023/01/04 13:12:45;;;;;;;47.97;23.27;;;;;;;;;;5019648;28;20028;-79
2023/01/04 13:15:23;;;;;;;41.92;22.08;;;;;;;;;;5021949;28;20036;-79
2023/01/04 13:17:49;;;;;;;37.05;21.33;;;;;;;;;;5021950;28;20044;-79
2023/01/04 13:20:24;;;;;;;34.55;19.77;;;;;;;;;;5037701;28;20032;-78
2023/01/04 13:22:54;;;;;;;32.50;19.55;;;;;;;;;;5054839;28;20064;-78
2023/01/04 13:25:20;;;;;;;34.23;19.33;;;;;;;;;;5059004;28;20040;-78
2023/01/04 13:27:59;;;;;;;41.72;21.85;;;;;;;;;;5039425;28;20255;-78
2023/01/04 13:30:32;;;;;;;44.28;21.52;;;;;;;;;;5072309;28;20250;-79
2023/01/04 13:32:58;;;;;;;50.47;26.70;;;;;;;;;;5038213;28;20024;-80
2023/01/04 13:35:23;;;;;;;52.47;24.02;;;;;;;;;;5073805;28;20425;-79
2023/01/04 13:37:49;;;;;;;48.40;26.55;;;;;;;;;;5056322;28;20032;-78
2023/01/04 13:40:26;;;;;;;44.20;23.45;;;;;;;;;;5057333;28;20107;-77
2023/01/04 13:43:00;;;;;;;37.20;20.98;;;;;;;;;;5056233;28;20025;-79
2023/01/04 13:46:03;;;;;;;45.15;19.70;;;;;;;;;;5071436;28;20024;-78
2023/01/04 13:48:31;;;;;;;36.83;19.00;;;;;;;;;;5033356;28;20048;-79
2023/01/04 13:50:59;;;;;;;35.15;18.05;;;;;;;;;;5019836;28;20043;-78
2023/01/04 13:53:25;;;;;;;30.25;17.88;;;;;;;;;;5087075;28;20040;-79
2023/01/04 13:55:58;;;;;;;35.50;18.55;;;;;;;;;;5052926;28;20111;-79
2023/01/04 13:58:29;;;;;;;34.17;19.10;;;;;;;;;;5071515;28;20036;-78
2023/01/04 14:01:04;;;;;;;43.60;20.15;;;;;;;;;;5038386;28;20052;-79
2023/01/04 14:03:57;;;;;;;40.33;22.10;;;;;;;;;;5073692;28;20599;-79
2023/01/04 14:06:22;;;;;;;38.15;20.10;;;;;;;;;;5071401;28;20036;-79
2023/01/04 14:09:12;;;;;;;39.80;21.23;;;;;;;;;;5074364;28;20050;-79
2023/01/04 14:14:30;;;;;;;36.58;20.77;;;;;;;;;;5074404;28;20495;-79
2023/01/04 14:17:14;;;;;;;45.30;23.58;;;;;;;;;;5039722;28;20036;-79
2023/01/04 14:19:41;;;;;;;57.50;29.27;;;;;;;;;;5074265;28;20430;-80
2023/01/04 14:22:22;;;;;;;59.67;29.27;;;;;;;;;;5073572;28;20039;-79
2023/01/04 14:24:52;;;;;;;55.03;26.13;;;;;;;;;;5074142;28;20051;-79
2023/01/04 14:27:39;;;;;;;50.58;28.30;;;;;;;;;;5073737;28;20446;-80
2023/01/04 14:30:14;;;;;;;58.90;27.85;;;;;;;;;;5056534;28;20119;-79
2023/01/04 14:32:39;;;;;;;58.67;30.25;;;;;;;;;;5074304;28;20086;-79
2023/01/04 14:35:11;;;;;;;56.00;29.77;;;;;;;;;;5055777;28;20071;-80
2023/01/04 14:37:37;;;;;;;56.63;29.17;;;;;;;;;;5056293;28;20042;-80
2023/01/04 14:40:30;;;;;;;51.83;27.98;;;;;;;;;;5056238;28;20020;-79
2023/01/04 14:42:56;;;;;;;53.55;28.33;;;;;;;;;;5073853;28;20074;-80
2023/01/04 14:45:21;;;;;;;54.78;29.42;;;;;;;;;;5039618;28;20024;-80
2023/01/04 14:47:47;;;;;;;51.72;27.77;;;;;;;;;;5039535;28;20063;-79
2023/01/04 14:50:13;;;;;;;44.40;25.10;;;;;;;;;;5039336;28;20029;-79
2023/01/04 14:52:38;;;;;;;51.55;25.23;;;;;;;;;;5056246;28;20449;-79
2023/01/04 14:55:04;;;;;;;50.83;24.60;;;;;;;;;;5056189;28;20028;-80
2023/01/04 14:57:30;;;;;;;51.75;24.15;;;;;;;;;;5072832;28;20038;-79
2023/01/04 14:59:56;;;;;;;48.38;23.20;;;;;;;;;;5056410;28;20647;-80
2023/01/04 15:02:24;;;;;;;56.55;24.23;;;;;;;;;;5055856;28;20115;-79
2023/01/04 15:04:50;;;;;;;49.17;26.17;;;;;;;;;;5066816;28;20469;-79
2023/01/04 15:07:36;;;;;;;83.90;43.42;;;;;;;;;;5054116;28;20017;-79
2023/01/04 15:10:02;;;;;;;71.80;35.90;;;;;;;;;;5019392;28;20037;-79
2023/01/04 15:12:31;;;;;;;78.63;38.47;;;;;;;;;;5054553;28;20028;-79
2023/01/04 15:14:57;;;;;;;77.47;37.78;;;;;;;;;;5069859;28;20108;-80
2023/01/04 15:17:22;;;;;;;81.85;37.53;;;;;;;;;;5036054;28;20517;-79
2023/01/04 15:19:47;;;;;;;84.28;39.60;;;;;;;;;;5053677;28;20052;-80
2023/01/04 15:22:13;;;;;;;76.00;35.75;;;;;;;;;;5053375;28;20489;-79
2023/01/04 15:24:38;;;;;;;58.47;31.95;;;;;;;;;;5067632;28;20418;-79
2023/01/04 15:27:04;;;;;;;65.07;33.72;;;;;;;;;;5017748;28;20339;-80
2023/01/04 15:29:29;;;;;;;64.93;32.47;;;;;;;;;;5051823;28;20338;-80
2023/01/04 15:31:55;;;;;;;66.85;34.03;;;;;;;;;;5017820;28;20037;-79
2023/01/04 15:34:21;;;;;;;68.65;34.90;;;;;;;;;;5051635;28;20715;-79
2023/01/04 15:36:50;;;;;;;76.72;35.97;;;;;;;;;;5034527;28;20060;-80
2023/01/04 15:39:15;;;;;;;78.60;37.00;;;;;;;;;;5068848;28;20032;-79
2023/01/04 15:44:25;;;;;;;81.55;39.97;;;;;;;;;;5038218;28;20083;-79
2023/01/04 15:46:51;;;;;;;82.38;41.45;;;;;;;;;;5002505;28;20107;-80
2023/01/04 15:49:17;;;;;;;96.07;42.03;;;;;;;;;;5035372;28;20488;-80
2023/01/04 15:51:42;;;;;;;104.97;46.13;;;;;;;;;;5053488;28;20114;-80
2023/01/04 15:54:08;;;;;;;109.47;52.30;;;;;;;;;;5035603;28;20037;-79
2023/01/04 15:56:33;;;;;;;114.03;52.42;;;;;;;;;;5068399;28;20163;-80
2023/01/04 15:58:59;;;;;;;121.93;58.55;;;;;;;;;;5018848;28;20115;-79
2023/01/04 16:01:25;;;;;;;120.85;58.50;;;;;;;;;;5019062;28;20025;-79
2023/01/04 16:03:50;;;;;;;130.73;62.60;;;;;;;;;;5035250;28;20021;-78
2023/01/04 16:06:16;;;;;;;154.25;72.45;;;;;;;;;;5018855;28;20033;-79